sensor_id;sensor_type;location;lat;lon;timestamp;pressure;altitude;pressure_sealevel;temperature;humidity
6615;BME280;3343;42.896;23.912;2023-03-03T00:01:57;96694.50;;;7.63;99.39
6615;BME280;3343;42.896;23.912;2023-03-03T00:04:26;96693.66;;;7.95;98.97
6615;BME280;3343;42.896;23.912;2023-03-03T00:06:52;96690.72;;;7.74;99.11
6615;BME280;3343;42.896;23.912;2023-03-03T00:09:19;96676.00;;;7.81;99.24
6615;BME280;3343;42.896;23.912;2023-03-03T00:11:46;96684.19;;;7.37;100.00
6615;BME280;3343;42.896;23.912;2023-03-03T00:14:21;96682.38;;;7.70;100.00
6615;BME280;3343;42.896;23.912;2023-03-03T00:16:49;96684.50;;;7.83;99.30
6615;BME280;3343;42.896;23.912;2023-03-03T00:19:18;96674.16;;;8.06;99.02
6615;BME280;3343;42.896;23.912;2023-03-03T00:21:47;96661.16;;;8.20;98.97
6615;BME280;3343;42.896;23.912;2023-03-03T00:24:18;96673.25;;;8.38;98.23
6615;BME280;3343;42.896;23.912;2023-03-03T00:26:46;96667.47;;;8.42;97.81
6615;BME280;3343;42.896;23.912;2023-03-03T00:29:29;96663.53;;;8.46;97.21
6615;BME280;3343;42.896;23.912;2023-03-03T00:34:41;96665.72;;;8.35;96.73
6615;BME280;3343;42.896;23.912;2023-03-03T00:37:21;96658.38;;;8.69;95.56
6615;BME280;3343;42.896;23.912;2023-03-03T00:39:49;96659.16;;;8.30;96.60
6615;BME280;3343;42.896;23.912;2023-03-03T00:42:17;96662.19;;;8.50;96.72
6615;BME280;3343;42.896;23.912;2023-03-03T00:44:45;96649.31;;;8.32;97.18
6615;BME280;3343;42.896;23.912;2023-03-03T00:47:31;96642.28;;;8.72;95.77
6615;BME280;3343;42.896;23.912;2023-03-03T00:50:26;96650.16;;;8.64;95.23
6615;BME280;3343;42.896;23.912;2023-03-03T00:53:00;96645.31;;;8.53;96.66
6615;BME280;3343;42.896;23.912;2023-03-03T00:55:28;96637.25;;;8.15;96.87
6615;BME280;3343;42.896;23.912;2023-03-03T00:57:56;96639.06;;;8.15;96.68
6615;BME280;3343;42.896;23.912;2023-03-03T01:00:23;96628.44;;;8.08;96.60
6615;BME280;3343;42.896;23.912;2023-03-03T01:02:50;96628.81;;;7.97;96.93
6615;BME280;3343;42.896;23.912;2023-03-03T01:05:19;96636.25;;;8.16;96.33
6615;BME280;3343;42.896;23.912;2023-03-03T01:07:46;96635.97;;;8.11;96.20
6615;BME280;3343;42.896;23.912;2023-03-03T01:10:14;96630.03;;;8.17;96.37
6615;BME280;3343;42.896;23.912;2023-03-03T01:12:41;96627.53;;;7.85;96.85
6615;BME280;3343;42.896;23.912;2023-03-03T01:15:10;96631.41;;;8.05;96.64
6615;BME280;3343;42.896;23.912;2023-03-03T01:17:38;96617.38;;;7.82;96.96
6615;BME280;3343;42.896;23.912;2023-03-03T01:20:12;96621.22;;;8.10;96.42
6615;BME280;3343;42.896;23.912;2023-03-03T01:22:39;96622.63;;;7.82;97.56
6615;BME280;3343;42.896;23.912;2023-03-03T01:25:07;96626.06;;;7.82;97.56
6615;BME280;3343;42.896;23.912;2023-03-03T01:27:36;96614.25;;;7.78;98.05
6615;BME280;3343;42.896;23.912;2023-03-03T01:30:03;96608.81;;;7.96;97.00
6615;BME280;3343;42.896;23.912;2023-03-03T01:32:30;96615.06;;;7.87;97.70
6615;BME280;3343;42.896;23.912;2023-03-03T01:34:57;96620.56;;;8.08;97.12
6615;BME280;3343;42.896;23.912;2023-03-03T01:37:24;96615.53;;;7.98;96.92
6615;BME280;3343;42.896;23.912;2023-03-03T01:39:52;96607.94;;;8.12;96.27
6615;BME280;3343;42.896;23.912;2023-03-03T01:42:20;96604.19;;;8.06;96.11
6615;BME280;3343;42.896;23.912;2023-03-03T01:44:48;96600.50;;;7.76;97.49
6615;BME280;3343;42.896;23.912;2023-03-03T01:47:16;96605.28;;;7.64;97.97
6615;BME280;3343;42.896;23.912;2023-03-03T01:49:46;96612.50;;;7.62;98.85
6615;BME280;3343;42.896;23.912;2023-03-03T01:52:21;96605.66;;;7.37;100.00
6615;BME280;3343;42.896;23.912;2023-03-03T01:54:54;96606.31;;;7.39;100.00
6615;BME280;3343;42.896;23.912;2023-03-03T01:57:26;96613.13;;;7.64;99.06
6615;BME280;3343;42.896;23.912;2023-03-03T01:59:57;96609.69;;;7.64;99.73
6615;BME280;3343;42.896;23.912;2023-03-03T02:02:26;96603.97;;;7.68;98.51
6615;BME280;3343;42.896;23.912;2023-03-03T02:04:54;96605.63;;;7.61;98.65
6615;BME280;3343;42.896;23.912;2023-03-03T02:07:22;96608.06;;;7.63;98.75
6615;BME280;3343;42.896;23.912;2023-03-03T02:09:54;96602.13;;;7.77;98.69
6615;BME280;3343;42.896;23.912;2023-03-03T02:12:27;96604.44;;;7.80;98.64
6615;BME280;3343;42.896;23.912;2023-03-03T02:14:56;96593.16;;;7.72;98.30
6615;BME280;3343;42.896;23.912;2023-03-03T02:17:24;96600.06;;;7.48;99.17
6615;BME280;3343;42.896;23.912;2023-03-03T02:19:54;96611.03;;;7.52;99.77
6615;BME280;3343;42.896;23.912;2023-03-03T02:22:31;96609.00;;;7.86;98.53
6615;BME280;3343;42.896;23.912;2023-03-03T02:25:01;96616.72;;;7.88;98.39
6615;BME280;3343;42.896;23.912;2023-03-03T02:27:31;96600.31;;;7.94;97.54
6615;BME280;3343;42.896;23.912;2023-03-03T02:30:07;96598.41;;;8.19;96.78
6615;BME280;3343;42.896;23.912;2023-03-03T02:32:34;96599.34;;;7.79;97.84
6615;BME280;3343;42.896;23.912;2023-03-03T02:35:26;96590.19;;;7.83;97.45
6615;BME280;3343;42.896;23.912;2023-03-03T02:37:56;96598.38;;;7.88;97.54
6615;BME280;3343;42.896;23.912;2023-03-03T02:40:27;96593.13;;;7.88;97.16
6615;BME280;3343;42.896;23.912;2023-03-03T02:43:00;96590.69;;;7.70;98.37
6615;BME280;3343;42.896;23.912;2023-03-03T02:45:28;96596.78;;;7.62;98.05
6615;BME280;3343;42.896;23.912;2023-03-03T02:47:55;96594.00;;;7.56;98.34
6615;BME280;3343;42.896;23.912;2023-03-03T02:50:22;96587.16;;;7.39;98.74
6615;BME280;3343;42.896;23.912;2023-03-03T02:52:49;96603.97;;;7.60;98.80
6615;BME280;3343;42.896;23.912;2023-03-03T02:55:16;96587.91;;;7.72;98.24
6615;BME280;3343;42.896;23.912;2023-03-03T02:57:43;96598.56;;;7.62;98.91
6615;BME280;3343;42.896;23.912;2023-03-03T03:00:11;96592.50;;;7.70;98.77
6615;BME280;3343;42.896;23.912;2023-03-03T03:02:38;96603.16;;;7.60;98.59
6615;BME280;3343;42.896;23.912;2023-03-03T03:05:06;96599.91;;;7.58;98.64
6615;BME280;3343;42.896;23.912;2023-03-03T03:07:33;96601.69;;;7.57;98.48
6615;BME280;3343;42.896;23.912;2023-03-03T03:10:00;96588.09;;;7.62;98.78
6615;BME280;3343;42.896;23.912;2023-03-03T03:12:27;96580.88;;;7.80;97.82
6615;BME280;3343;42.896;23.912;2023-03-03T03:14:54;96587.38;;;7.92;96.83
6615;BME280;3343;42.896;23.912;2023-03-03T03:17:22;96589.13;;;8.08;96.96
6615;BME280;3343;42.896;23.912;2023-03-03T03:19:48;96585.59;;;7.85;97.21
6615;BME280;3343;42.896;23.912;2023-03-03T03:22:15;96581.66;;;7.89;97.22
6615;BME280;3343;42.896;23.912;2023-03-03T03:24:43;96583.28;;;7.90;97.27
6615;BME280;3343;42.896;23.912;2023-03-03T03:27:10;96584.56;;;8.02;96.31
6615;BME280;3343;42.896;23.912;2023-03-03T03:29:37;96578.28;;;8.11;96.72
6615;BME280;3343;42.896;23.912;2023-03-03T03:32:04;96573.03;;;8.11;95.86
6615;BME280;3343;42.896;23.912;2023-03-03T03:34:33;96567.84;;;8.03;96.38
6615;BME280;3343;42.896;23.912;2023-03-03T03:37:00;96568.50;;;8.05;96.98
6615;BME280;3343;42.896;23.912;2023-03-03T03:39:26;96568.44;;;8.13;96.08
6615;BME280;3343;42.896;23.912;2023-03-03T03:41:53;96565.19;;;8.11;96.78
6615;BME280;3343;42.896;23.912;2023-03-03T03:44:20;96564.81;;;7.83;96.39
6615;BME280;3343;42.896;23.912;2023-03-03T03:46:48;96569.03;;;7.92;96.76
6615;BME280;3343;42.896;23.912;2023-03-03T03:49:15;96564.16;;;7.73;97.72
6615;BME280;3343;42.896;23.912;2023-03-03T03:51:43;96560.91;;;7.71;97.76
6615;BME280;3343;42.896;23.912;2023-03-03T03:54:10;96559.91;;;7.72;97.44
6615;BME280;3343;42.896;23.912;2023-03-03T03:56:37;96554.41;;;7.51;98.24
6615;BME280;3343;42.896;23.912;2023-03-03T03:59:04;96562.72;;;7.62;98.49
6615;BME280;3343;42.896;23.912;2023-03-03T04:01:31;96548.13;;;7.68;97.78
6615;BME280;3343;42.896;23.912;2023-03-03T04:03:58;96550.75;;;7.68;97.54
6615;BME280;3343;42.896;23.912;2023-03-03T04:06:25;96548.34;;;7.58;98.05
6615;BME280;3343;42.896;23.912;2023-03-03T04:08:53;96549.56;;;7.87;98.00
6615;BME280;3343;42.896;23.912;2023-03-03T04:11:20;96542.22;;;7.82;97.33
6615;BME280;3343;42.896;23.912;2023-03-03T04:13:47;96541.41;;;7.82;97.75
6615;BME280;3343;42.896;23.912;2023-03-03T04:16:14;96543.66;;;7.93;96.30
6615;BME280;3343;42.896;23.912;2023-03-03T04:18:41;96542.03;;;7.92;96.33
6615;BME280;3343;42.896;23.912;2023-03-03T04:21:11;96552.50;;;7.92;96.70
6615;BME280;3343;42.896;23.912;2023-03-03T04:23:38;96544.78;;;7.98;96.46
6615;BME280;3343;42.896;23.912;2023-03-03T04:26:06;96535.25;;;8.06;95.94
6615;BME280;3343;42.896;23.912;2023-03-03T04:28:33;96542.50;;;7.95;95.91
6615;BME280;3343;42.896;23.912;2023-03-03T04:31:00;96549.06;;;7.91;96.01
6615;BME280;3343;42.896;23.912;2023-03-03T04:33:26;96541.69;;;7.95;96.13
6615;BME280;3343;42.896;23.912;2023-03-03T04:35:53;96544.28;;;7.95;95.75
6615;BME280;3343;42.896;23.912;2023-03-03T04:38:20;96539.56;;;7.90;96.34
6615;BME280;3343;42.896;23.912;2023-03-03T04:40:47;96543.34;;;7.88;96.69
6615;BME280;3343;42.896;23.912;2023-03-03T04:43:15;96544.59;;;8.00;96.51
6615;BME280;3343;42.896;23.912;2023-03-03T04:45:43;96540.28;;;7.68;97.00
6615;BME280;3343;42.896;23.912;2023-03-03T04:48:10;96536.38;;;7.64;97.46
6615;BME280;3343;42.896;23.912;2023-03-03T04:50:37;96538.03;;;7.57;97.83
6615;BME280;3343;42.896;23.912;2023-03-03T04:53:04;96538.44;;;7.77;97.26
6615;BME280;3343;42.896;23.912;2023-03-03T04:55:31;96542.78;;;7.53;98.02
6615;BME280;3343;42.896;23.912;2023-03-03T04:57:58;96546.88;;;7.56;97.91
6615;BME280;3343;42.896;23.912;2023-03-03T05:00:26;96543.69;;;7.77;97.64
6615;BME280;3343;42.896;23.912;2023-03-03T05:02:53;96545.03;;;7.64;97.81
6615;BME280;3343;42.896;23.912;2023-03-03T05:05:20;96538.13;;;7.72;97.86
6615;BME280;3343;42.896;23.912;2023-03-03T05:07:46;96539.16;;;7.62;98.03
6615;BME280;3343;42.896;23.912;2023-03-03T05:10:13;96539.50;;;7.59;98.40
6615;BME280;3343;42.896;23.912;2023-03-03T05:12:40;96546.03;;;7.63;98.35
6615;BME280;3343;42.896;23.912;2023-03-03T05:15:08;96539.63;;;7.66;98.19
6615;BME280;3343;42.896;23.912;2023-03-03T05:17:36;96548.63;;;7.72;98.45
6615;BME280;3343;42.896;23.912;2023-03-03T05:20:04;96549.44;;;7.72;98.49
6615;BME280;3343;42.896;23.912;2023-03-03T05:22:33;96543.53;;;7.78;98.06
6615;BME280;3343;42.896;23.912;2023-03-03T05:24:59;96539.09;;;7.87;97.61
6615;BME280;3343;42.896;23.912;2023-03-03T05:27:26;96542.22;;;7.74;97.92
6615;BME280;3343;42.896;23.912;2023-03-03T05:29:53;96541.41;;;7.82;97.69
6615;BME280;3343;42.896;23.912;2023-03-03T05:32:20;96532.25;;;7.70;98.15
6615;BME280;3343;42.896;23.912;2023-03-03T05:34:48;96526.75;;;7.56;98.86
6615;BME280;3343;42.896;23.912;2023-03-03T05:37:17;96540.50;;;7.50;99.06
6615;BME280;3343;42.896;23.912;2023-03-03T05:39:43;96523.38;;;7.31;99.43
6615;BME280;3343;42.896;23.912;2023-03-03T05:42:11;96548.38;;;7.50;99.47
6615;BME280;3343;42.896;23.912;2023-03-03T05:44:38;96545.53;;;7.60;98.88
6615;BME280;3343;42.896;23.912;2023-03-03T05:47:05;96547.19;;;7.61;98.91
6615;BME280;3343;42.896;23.912;2023-03-03T05:49:32;96555.19;;;7.67;98.95
6615;BME280;3343;42.896;23.912;2023-03-03T05:52:00;96549.59;;;7.71;98.88
6615;BME280;3343;42.896;23.912;2023-03-03T05:54:28;96554.06;;;7.62;99.28
6615;BME280;3343;42.896;23.912;2023-03-03T05:56:54;96554.91;;;7.54;99.51
6615;BME280;3343;42.896;23.912;2023-03-03T05:59:22;96550.63;;;7.61;99.51
6615;BME280;3343;42.896;23.912;2023-03-03T06:01:49;96552.88;;;7.73;99.33
6615;BME280;3343;42.896;23.912;2023-03-03T06:04:16;96550.25;;;7.81;99.33
6615;BME280;3343;42.896;23.912;2023-03-03T06:06:43;96555.16;;;7.76;99.00
6615;BME280;3343;42.896;23.912;2023-03-03T06:09:11;96543.34;;;7.80;99.22
6615;BME280;3343;42.896;23.912;2023-03-03T06:11:38;96554.22;;;7.60;99.29
6615;BME280;3343;42.896;23.912;2023-03-03T06:14:04;96551.88;;;7.74;99.48
6615;BME280;3343;42.896;23.912;2023-03-03T06:16:31;96558.75;;;7.75;99.38
6615;BME280;3343;42.896;23.912;2023-03-03T06:18:58;96561.66;;;7.96;98.54
6615;BME280;3343;42.896;23.912;2023-03-03T06:21:25;96554.59;;;7.96;98.45
6615;BME280;3343;42.896;23.912;2023-03-03T06:23:52;96561.22;;;7.76;98.91
6615;BME280;3343;42.896;23.912;2023-03-03T06:26:20;96572.78;;;7.98;99.52
6615;BME280;3343;42.896;23.912;2023-03-03T06:28:47;96567.22;;;7.93;98.58
6615;BME280;3343;42.896;23.912;2023-03-03T06:31:14;96562.72;;;8.10;98.62
6615;BME280;3343;42.896;23.912;2023-03-03T06:33:41;96562.13;;;8.30;97.97
6615;BME280;3343;42.896;23.912;2023-03-03T06:36:08;96562.28;;;8.37;97.96
6615;BME280;3343;42.896;23.912;2023-03-03T06:38:35;96560.31;;;8.39;97.00
6615;BME280;3343;42.896;23.912;2023-03-03T06:41:02;96559.78;;;8.44;97.71
6615;BME280;3343;42.896;23.912;2023-03-03T06:43:33;96560.03;;;8.57;97.23
6615;BME280;3343;42.896;23.912;2023-03-03T06:46:00;96560.78;;;8.43;96.95
6615;BME280;3343;42.896;23.912;2023-03-03T06:48:27;96562.06;;;8.47;97.26
6615;BME280;3343;42.896;23.912;2023-03-03T06:50:54;96566.78;;;8.51;97.28
6615;BME280;3343;42.896;23.912;2023-03-03T06:53:20;96564.94;;;8.60;97.00
6615;BME280;3343;42.896;23.912;2023-03-03T06:55:47;96567.81;;;8.73;96.58
6615;BME280;3343;42.896;23.912;2023-03-03T06:58:15;96563.84;;;8.77;96.43
6615;BME280;3343;42.896;23.912;2023-03-03T07:00:45;96573.16;;;8.57;96.41
6615;BME280;3343;42.896;23.912;2023-03-03T07:03:17;96562.75;;;8.72;96.57
6615;BME280;3343;42.896;23.912;2023-03-03T07:05:45;96561.53;;;8.82;96.18
6615;BME280;3343;42.896;23.912;2023-03-03T07:08:13;96552.16;;;9.03;94.80
6615;BME280;3343;42.896;23.912;2023-03-03T07:10:42;96561.69;;;9.04;95.02
6615;BME280;3343;42.896;23.912;2023-03-03T07:13:27;96561.44;;;9.13;93.91
6615;BME280;3343;42.896;23.912;2023-03-03T07:15:59;96571.72;;;9.00;93.25
6615;BME280;3343;42.896;23.912;2023-03-03T07:18:34;96566.00;;;8.97;91.91
6615;BME280;3343;42.896;23.912;2023-03-03T07:21:13;96553.47;;;8.84;91.53
6615;BME280;3343;42.896;23.912;2023-03-03T07:23:41;96555.09;;;8.85;92.25
6615;BME280;3343;42.896;23.912;2023-03-03T07:26:11;96547.97;;;8.93;92.78
6615;BME280;3343;42.896;23.912;2023-03-03T07:28:40;96558.59;;;8.77;91.90
6615;BME280;3343;42.896;23.912;2023-03-03T07:31:31;96561.16;;;9.08;91.16
6615;BME280;3343;42.896;23.912;2023-03-03T07:34:00;96558.41;;;9.02;91.30
6615;BME280;3343;42.896;23.912;2023-03-03T07:36:29;96551.72;;;8.99;90.44
6615;BME280;3343;42.896;23.912;2023-03-03T07:38:58;96553.00;;;9.18;90.95
6615;BME280;3343;42.896;23.912;2023-03-03T07:41:27;96546.22;;;9.09;90.55
6615;BME280;3343;42.896;23.912;2023-03-03T07:43:54;96543.41;;;9.10;91.01
6615;BME280;3343;42.896;23.912;2023-03-03T07:46:30;96535.19;;;9.13;91.84
6615;BME280;3343;42.896;23.912;2023-03-03T07:49:01;96538.16;;;9.10;91.75
6615;BME280;3343;42.896;23.912;2023-03-03T07:51:39;96541.41;;;9.12;91.59
6615;BME280;3343;42.896;23.912;2023-03-03T07:54:29;96536.63;;;9.16;91.44
6615;BME280;3343;42.896;23.912;2023-03-03T07:56:57;96521.47;;;9.03;92.00
6615;BME280;3343;42.896;23.912;2023-03-03T07:59:27;96536.31;;;8.96;92.48
6615;BME280;3343;42.896;23.912;2023-03-03T08:01:56;96543.13;;;9.05;93.15
6615;BME280;3343;42.896;23.912;2023-03-03T08:04:28;96536.16;;;9.12;93.55
6615;BME280;3343;42.896;23.912;2023-03-03T08:06:59;96539.63;;;9.27;91.75
6615;BME280;3343;42.896;23.912;2023-03-03T08:09:41;96530.69;;;9.37;91.18
6615;BME280;3343;42.896;23.912;2023-03-03T08:12:39;96525.56;;;9.58;90.72
6615;BME280;3343;42.896;23.912;2023-03-03T08:15:21;96517.84;;;9.71;90.43
6615;BME280;3343;42.896;23.912;2023-03-03T08:17:51;96522.72;;;9.74;89.05
6615;BME280;3343;42.896;23.912;2023-03-03T08:20:39;96521.84;;;9.67;89.21
6615;BME280;3343;42.896;23.912;2023-03-03T08:23:07;96513.28;;;9.50;89.11
6615;BME280;3343;42.896;23.912;2023-03-03T08:25:34;96518.84;;;9.55;87.90
6615;BME280;3343;42.896;23.912;2023-03-03T08:28:01;96520.75;;;9.62;88.05
6615;BME280;3343;42.896;23.912;2023-03-03T08:30:28;96520.53;;;9.48;89.32
6615;BME280;3343;42.896;23.912;2023-03-03T08:32:57;96514.84;;;9.45;88.73
6615;BME280;3343;42.896;23.912;2023-03-03T08:35:25;96515.63;;;9.16;89.08
6615;BME280;3343;42.896;23.912;2023-03-03T08:37:52;96509.19;;;9.18;89.64
6615;BME280;3343;42.896;23.912;2023-03-03T08:40:19;96506.75;;;9.32;89.45
6615;BME280;3343;42.896;23.912;2023-03-03T08:42:46;96504.88;;;9.40;89.47
6615;BME280;3343;42.896;23.912;2023-03-03T08:45:13;96505.94;;;9.46;89.32
6615;BME280;3343;42.896;23.912;2023-03-03T08:47:40;96504.59;;;9.50;88.41
6615;BME280;3343;42.896;23.912;2023-03-03T08:50:09;96499.38;;;9.65;86.77
6615;BME280;3343;42.896;23.912;2023-03-03T08:52:36;96507.22;;;9.35;87.69
6615;BME280;3343;42.896;23.912;2023-03-03T08:55:03;96502.50;;;9.45;87.23
6615;BME280;3343;42.896;23.912;2023-03-03T08:57:30;96501.97;;;9.50;88.29
6615;BME280;3343;42.896;23.912;2023-03-03T08:59:57;96506.94;;;9.30;88.59
6615;BME280;3343;42.896;23.912;2023-03-03T09:02:24;96499.34;;;9.35;89.38
6615;BME280;3343;42.896;23.912;2023-03-03T09:04:51;96509.22;;;9.48;89.42
6615;BME280;3343;42.896;23.912;2023-03-03T09:07:19;96502.63;;;9.67;87.06
6615;BME280;3343;42.896;23.912;2023-03-03T09:09:46;96505.44;;;9.65;87.72
6615;BME280;3343;42.896;23.912;2023-03-03T09:12:15;96506.06;;;9.67;87.61
6615;BME280;3343;42.896;23.912;2023-03-03T09:14:42;96506.75;;;9.32;88.17
6615;BME280;3343;42.896;23.912;2023-03-03T09:17:23;96500.31;;;9.05;89.77
6615;BME280;3343;42.896;23.912;2023-03-03T09:19:51;96501.47;;;9.02;90.49
6615;BME280;3343;42.896;23.912;2023-03-03T09:22:22;96498.34;;;9.36;91.37
6615;BME280;3343;42.896;23.912;2023-03-03T09:24:52;96493.66;;;9.76;91.43
6615;BME280;3343;42.896;23.912;2023-03-03T09:27:26;96483.25;;;10.04;88.79
6615;BME280;3343;42.896;23.912;2023-03-03T09:29:53;96493.44;;;9.92;88.24
6615;BME280;3343;42.896;23.912;2023-03-03T09:32:30;96497.91;;;10.13;85.92
6615;BME280;3343;42.896;23.912;2023-03-03T09:34:59;96490.63;;;9.94;85.98
6615;BME280;3343;42.896;23.912;2023-03-03T09:37:32;96499.97;;;10.47;85.39
6615;BME280;3343;42.896;23.912;2023-03-03T09:40:18;96503.22;;;10.49;84.71
6615;BME280;3343;42.896;23.912;2023-03-03T09:43:01;96491.53;;;10.37;82.80
6615;BME280;3343;42.896;23.912;2023-03-03T09:45:39;96492.25;;;10.67;85.02
6615;BME280;3343;42.896;23.912;2023-03-03T09:48:20;96491.06;;;10.48;84.29
6615;BME280;3343;42.896;23.912;2023-03-03T09:50:58;96495.38;;;10.56;83.61
6615;BME280;3343;42.896;23.912;2023-03-03T09:53:40;96495.81;;;10.80;83.99
6615;BME280;3343;42.896;23.912;2023-03-03T09:56:15;96492.16;;;10.39;83.45
6615;BME280;3343;42.896;23.912;2023-03-03T09:58:55;96484.16;;;10.47;83.62
6615;BME280;3343;42.896;23.912;2023-03-03T10:01:42;96489.03;;;10.93;83.65
6615;BME280;3343;42.896;23.912;2023-03-03T10:04:46;96480.69;;;10.89;82.14
6615;BME280;3343;42.896;23.912;2023-03-03T10:07:26;96484.91;;;10.83;81.78
6615;BME280;3343;42.896;23.912;2023-03-03T10:10:05;96481.06;;;10.86;81.12
6615;BME280;3343;42.896;23.912;2023-03-03T10:12:41;96470.50;;;11.07;81.82
6615;BME280;3343;42.896;23.912;2023-03-03T10:15:24;96477.28;;;11.23;78.31
6615;BME280;3343;42.896;23.912;2023-03-03T10:17:58;96480.44;;;11.12;80.12
6615;BME280;3343;42.896;23.912;2023-03-03T10:20:54;96456.69;;;11.05;80.26
6615;BME280;3343;42.896;23.912;2023-03-03T10:26:45;96466.94;;;11.22;79.57
6615;BME280;3343;42.896;23.912;2023-03-03T10:29:25;96469.16;;;10.90;79.00
6615;BME280;3343;42.896;23.912;2023-03-03T10:32:17;96464.50;;;11.20;77.40
6615;BME280;3343;42.896;23.912;2023-03-03T10:35:02;96465.75;;;11.59;77.04
6615;BME280;3343;42.896;23.912;2023-03-03T10:37:44;96458.88;;;11.58;76.96
6615;BME280;3343;42.896;23.912;2023-03-03T10:40:17;96462.19;;;11.73;74.82
6615;BME280;3343;42.896;23.912;2023-03-03T10:45:49;96449.13;;;11.99;73.20
6615;BME280;3343;42.896;23.912;2023-03-03T10:48:35;96457.03;;;11.99;75.84
6615;BME280;3343;42.896;23.912;2023-03-03T10:51:13;96452.25;;;12.23;75.97
6615;BME280;3343;42.896;23.912;2023-03-03T10:53:53;96443.31;;;11.69;74.37
6615;BME280;3343;42.896;23.912;2023-03-03T10:56:33;96442.44;;;12.03;78.22
6615;BME280;3343;42.896;23.912;2023-03-03T10:59:24;96434.53;;;12.10;72.42
6615;BME280;3343;42.896;23.912;2023-03-03T11:01:58;96432.41;;;11.79;76.54
6615;BME280;3343;42.896;23.912;2023-03-03T11:04:51;96424.78;;;11.97;77.89
6615;BME280;3343;42.896;23.912;2023-03-03T11:07:25;96425.41;;;12.12;77.75
6615;BME280;3343;42.896;23.912;2023-03-03T11:10:16;96423.25;;;12.36;76.04
6615;BME280;3343;42.896;23.912;2023-03-03T11:12:53;96422.84;;;12.46;76.70
6615;BME280;3343;42.896;23.912;2023-03-03T11:15:42;96425.69;;;12.31;74.47
6615;BME280;3343;42.896;23.912;2023-03-03T11:18:24;96416.13;;;12.17;75.85
6615;BME280;3343;42.896;23.912;2023-03-03T11:21:04;96414.44;;;11.55;76.93
6615;BME280;3343;42.896;23.912;2023-03-03T11:27:05;96414.97;;;11.78;72.42
6615;BME280;3343;42.896;23.912;2023-03-03T11:29:58;96415.63;;;11.93;73.43
6615;BME280;3343;42.896;23.912;2023-03-03T11:32:37;96414.69;;;12.14;71.37
6615;BME280;3343;42.896;23.912;2023-03-03T11:35:21;96400.50;;;12.22;70.71
6615;BME280;3343;42.896;23.912;2023-03-03T11:37:58;96406.19;;;12.38;73.31
6615;BME280;3343;42.896;23.912;2023-03-03T11:40:30;96407.81;;;12.33;72.89
6615;BME280;3343;42.896;23.912;2023-03-03T11:43:02;96403.13;;;11.61;73.99
6615;BME280;3343;42.896;23.912;2023-03-03T11:45:39;96393.53;;;11.12;78.40
6615;BME280;3343;42.896;23.912;2023-03-03T11:48:15;96383.63;;;11.48;78.40
6615;BME280;3343;42.896;23.912;2023-03-03T11:50:49;96387.91;;;11.22;76.75
6615;BME280;3343;42.896;23.912;2023-03-03T11:53:46;96384.47;;;11.21;77.95
6615;BME280;3343;42.896;23.912;2023-03-03T11:56:22;96367.47;;;11.24;77.75
6615;BME280;3343;42.896;23.912;2023-03-03T11:58:57;96373.75;;;11.23;78.22
6615;BME280;3343;42.896;23.912;2023-03-03T12:01:31;96372.91;;;11.15;80.62
6615;BME280;3343;42.896;23.912;2023-03-03T12:04:02;96369.03;;;11.11;79.99
6615;BME280;3343;42.896;23.912;2023-03-03T12:06:37;96372.91;;;11.15;79.78
6615;BME280;3343;42.896;23.912;2023-03-03T12:09:18;96376.63;;;11.28;80.13
6615;BME280;3343;42.896;23.912;2023-03-03T12:11:51;96370.59;;;11.40;79.97
6615;BME280;3343;42.896;23.912;2023-03-03T12:14:34;96376.31;;;11.51;77.81
6615;BME280;3343;42.896;23.912;2023-03-03T12:17:05;96385.94;;;11.71;78.75
6615;BME280;3343;42.896;23.912;2023-03-03T12:19:46;96376.69;;;11.95;76.30
6615;BME280;3343;42.896;23.912;2023-03-03T12:22:26;96373.53;;;11.65;77.44
6615;BME280;3343;42.896;23.912;2023-03-03T12:25:06;96381.03;;;11.68;77.14
6615;BME280;3343;42.896;23.912;2023-03-03T12:27:40;96381.50;;;11.78;77.93
6615;BME280;3343;42.896;23.912;2023-03-03T12:30:19;96382.22;;;11.53;77.58
6615;BME280;3343;42.896;23.912;2023-03-03T12:33:00;96383.00;;;11.12;78.91
6615;BME280;3343;42.896;23.912;2023-03-03T12:35:37;96390.91;;;11.46;78.50
6615;BME280;3343;42.896;23.912;2023-03-03T12:38:10;96387.81;;;11.77;80.45
6615;BME280;3343;42.896;23.912;2023-03-03T12:40:45;96389.63;;;11.84;80.41
6615;BME280;3343;42.896;23.912;2023-03-03T12:43:27;96379.34;;;12.02;80.09
6615;BME280;3343;42.896;23.912;2023-03-03T12:46:05;96388.72;;;12.18;77.09
6615;BME280;3343;42.896;23.912;2023-03-03T12:48:39;96390.97;;;12.21;76.26
6615;BME280;3343;42.896;23.912;2023-03-03T12:51:14;96376.72;;;12.08;78.55
6615;BME280;3343;42.896;23.912;2023-03-03T12:54:08;96391.72;;;12.01;80.68
6615;BME280;3343;42.896;23.912;2023-03-03T12:56:43;96395.72;;;11.84;81.89
6615;BME280;3343;42.896;23.912;2023-03-03T12:59:17;96395.94;;;11.89;82.73
6615;BME280;3343;42.896;23.912;2023-03-03T13:02:02;96392.09;;;11.92;84.19
6615;BME280;3343;42.896;23.912;2023-03-03T13:04:37;96389.28;;;12.13;83.81
6615;BME280;3343;42.896;23.912;2023-03-03T13:07:14;96392.53;;;12.02;84.15
6615;BME280;3343;42.896;23.912;2023-03-03T13:10:02;96383.47;;;12.24;82.58
6615;BME280;3343;42.896;23.912;2023-03-03T13:12:36;96378.53;;;12.08;84.77
6615;BME280;3343;42.896;23.912;2023-03-03T13:15:14;96379.00;;;12.31;83.96
6615;BME280;3343;42.896;23.912;2023-03-03T13:17:50;96377.38;;;12.30;81.00
6615;BME280;3343;42.896;23.912;2023-03-03T13:20:28;96380.63;;;12.26;82.30
6615;BME280;3343;42.896;23.912;2023-03-03T13:23:05;96371.69;;;12.27;79.38
6615;BME280;3343;42.896;23.912;2023-03-03T13:25:48;96377.97;;;12.32;79.83
6615;BME280;3343;42.896;23.912;2023-03-03T13:28:24;96371.91;;;12.32;82.26
6615;BME280;3343;42.896;23.912;2023-03-03T13:31:00;96366.25;;;11.74;85.78
6615;BME280;3343;42.896;23.912;2023-03-03T13:33:31;96369.28;;;11.23;89.39
6615;BME280;3343;42.896;23.912;2023-03-03T13:36:02;96372.41;;;10.99;89.88
6615;BME280;3343;42.896;23.912;2023-03-03T13:38:31;96370.25;;;10.81;91.83
6615;BME280;3343;42.896;23.912;2023-03-03T13:41:04;96371.38;;;10.65;92.57
6615;BME280;3343;42.896;23.912;2023-03-03T13:43:37;96378.28;;;10.66;92.39
6615;BME280;3343;42.896;23.912;2023-03-03T13:46:13;96386.63;;;10.48;92.49
6615;BME280;3343;42.896;23.912;2023-03-03T13:48:50;96370.72;;;10.91;92.42
6615;BME280;3343;42.896;23.912;2023-03-03T13:51:31;96371.28;;;10.80;92.71
6615;BME280;3343;42.896;23.912;2023-03-03T13:54:10;96372.97;;;10.94;91.49
6615;BME280;3343;42.896;23.912;2023-03-03T13:57:10;96373.31;;;10.84;93.33